Time;durP1;ratioP1;P1;durP2;ratioP2;P2;SDS_P1;SDS_P2;PMS_P1;PMS_P2;Temp;Humidity;BMP_temperature;BMP_pressure;BME280_temperature;BME280_humidity;BME280_pressure;Samples;Min_cycle;Max_cycle;Signal;HPM_P1;HPM_P2
2021/12/24 00:01:11;;;;;;;;;;;;;;;0.16;100.00;99247.97;5053810;28;976;-74
2021/12/24 00:03:39;;;;;;;;;;;;;;;0.14;100.00;99248.06;5053521;28;1411;-72
2021/12/24 00:06:06;;;;;;;;;;;;;;;0.14;100.00;99244.56;5053652;28;813;-73
2021/12/24 00:08:32;;;;;;;;;;;;;;;0.13;100.00;99240.16;5053735;28;904;-75
2021/12/24 00:11:00;;;;;;;;;;;;;;;0.11;100.00;99234.91;5053571;28;962;-74
2021/12/24 00:13:27;;;;;;;;;;;;;;;0.12;100.00;99236.66;5053446;28;1977;-74
2021/12/24 00:16:03;;;;;;;;;;;;;;;0.09;100.00;99244.81;5053184;28;876;-73
2021/12/24 00:18:38;;;;;;;;;;;;;;;0.12;100.00;99250.00;5053340;28;1003;-74
2021/12/24 00:37:47;;;;;;;;;;;;;;;0.14;100.00;99229.38;5106397;28;1476;-72
2021/12/24 00:40:18;;;;;;;;;;;;;;;0.15;100.00;99230.25;5107338;28;787;-73
2021/12/24 00:42:46;;;;;;;;;;;;;;;0.15;100.00;99225.78;5108538;28;1914;-74
2021/12/24 00:45:13;;;;;;;;;;;;;;;0.17;100.00;99217.66;5108448;28;974;-75
2021/12/24 00:47:40;;;;;;;;;;;;;;;0.18;100.00;99227.41;5108140;28;871;-73
2021/12/24 00:50:10;;;;;;;;;;;;;;;0.20;100.00;99228.16;5107025;28;954;-75
2021/12/24 00:52:48;;;;;;;;;;;;;;;0.20;100.00;99219.28;5107116;28;1043;-73
2021/12/24 00:55:16;;;;;;;;;;;;;;;0.22;100.00;99220.06;5107084;28;1005;-75
2021/12/24 00:57:43;;;;;;;;;;;;;;;0.22;100.00;99220.06;5089425;28;1087;-74
2021/12/24 01:00:11;;;;;;;;;;;;;;;0.22;100.00;99212.06;5103665;28;1125;-75
2021/12/24 01:02:38;;;;;;;;;;;;;;;0.23;100.00;99208.41;5090535;28;1914;-75
2021/12/24 01:05:05;;;;;;;;;;;;;;;0.25;100.00;99209.19;5106713;28;2395;-73
2021/12/24 01:07:32;;;;;;;;;;;;;;;0.24;100.00;99207.47;5106420;28;882;-74
2021/12/24 01:09:58;;;;;;;;;;;;;;;0.26;100.00;99213.56;5106672;28;950;-74
2021/12/24 01:12:26;;;;;;;;;;;;;;;0.27;100.00;99216.16;5106748;28;966;-76
2021/12/24 01:14:52;;;;;;;;;;;;;;;0.30;100.00;99207.09;5107987;28;1314;-75
2021/12/24 01:17:30;;;;;;;;;;;;;;;0.27;100.00;99204.63;5107708;28;825;-75
2021/12/24 01:20:03;;;;;;;;;;;;;;;0.33;100.00;99207.75;5106591;28;1017;-75
2021/12/24 01:23:06;;;;;;;;;;;;;;;0.33;100.00;99206.88;5106354;28;1910;-76
2021/12/24 01:25:33;;;;;;;;;;;;;;;0.35;100.00;99207.66;5106294;28;1213;-75
2021/12/24 01:28:26;;;;;;;;;;;;;;;0.32;100.00;99210.50;5107503;28;946;-75
2021/12/24 01:39:11;;;;;;;;;;;;;;;0.38;100.00;99198.59;5093172;28;884;-75
2021/12/24 01:44:27;;;;;;;;;;;;;;;0.41;100.00;99199.25;5092506;28;1344;-73
2021/12/24 01:46:56;;;;;;;;;;;;;;;0.42;100.00;99195.63;5091947;28;1351;-75
2021/12/24 01:49:23;;;;;;;;;;;;;;;0.43;100.00;99201.84;5092078;28;851;-74
2021/12/24 01:51:50;;;;;;;;;;;;;;;0.45;100.00;99200.75;5092326;28;1049;-74
2021/12/24 01:54:16;;;;;;;;;;;;;;;0.46;100.00;99197.13;5092246;28;1311;-74
2021/12/24 01:56:43;;;;;;;;;;;;;;;0.48;100.00;99200.59;5092238;28;792;-75
2021/12/24 01:59:09;;;;;;;;;;;;;;;0.46;100.00;99191.81;5089085;28;1530;-75
2021/12/24 02:01:37;;;;;;;;;;;;;;;0.48;100.00;99184.56;5072156;28;1036;-75
2021/12/24 02:04:03;;;;;;;;;;;;;;;0.46;100.00;99186.47;5072174;28;1914;-74
2021/12/24 02:06:30;;;;;;;;;;;;;;;0.50;100.00;99182.63;5072192;28;919;-74
2021/12/24 02:08:56;;;;;;;;;;;;;;;0.50;100.00;99174.63;5072519;28;796;-74
2021/12/24 02:11:23;;;;;;;;;;;;;;;0.52;100.00;99179.03;5072837;28;988;-75
2021/12/24 02:13:51;;;;;;;;;;;;;;;0.51;100.00;99167.50;5072354;28;1340;-73
2021/12/24 02:16:33;;;;;;;;;;;;;;;0.54;100.00;99166.44;5071985;28;1036;-74
2021/12/24 02:29:59;;;;;;;;;;;;;;;0.55;100.00;99142.31;5095611;28;1060;-74
2021/12/24 02:32:26;;;;;;;;;;;;;;;0.57;100.00;99150.22;5098765;28;955;-74
2021/12/24 02:34:52;;;;;;;;;;;;;;;0.57;100.00;99140.38;5092392;28;1395;-73
2021/12/24 02:37:19;;;;;;;;;;;;;;;0.59;100.00;99142.94;5092055;28;855;-74
2021/12/24 02:39:46;;;;;;;;;;;;;;;0.61;100.00;99143.72;5092561;28;820;-74
2021/12/24 02:42:15;;;;;;;;;;;;;;;0.62;100.00;99148.94;5097720;28;1914;-74
2021/12/24 02:44:42;;;;;;;;;;;;;;;0.62;100.00;99148.94;5096121;28;1395;-74
2021/12/24 02:47:24;;;;;;;;;;;;;;;0.64;100.00;99147.03;5092436;28;1082;-74
2021/12/24 02:55:26;;;;;;;;;;;;;;;0.67;100.00;99127.28;5074545;28;1389;-74
2021/12/24 02:57:52;;;;;;;;;;;;;;;0.66;100.00;99117.56;5092680;28;836;-74
2021/12/24 03:00:25;;;;;;;;;;;;;;;0.68;100.00;99120.13;5076859;28;1155;-74
2021/12/24 03:02:51;;;;;;;;;;;;;;;0.69;100.00;99122.69;5095044;28;1914;-73
2021/12/24 03:05:18;;;;;;;;;;;;;;;0.70;100.00;99127.09;5093404;28;2461;-73
2021/12/24 03:07:46;;;;;;;;;;;;;;;0.71;100.00;99128.81;5104526;28;993;-73
2021/12/24 03:10:16;;;;;;;;;;;;;;;0.74;100.00;99127.75;5112926;28;1204;-74
2021/12/24 03:12:44;;;;;;;;;;;;;;;0.75;100.00;99114.28;5113189;28;1392;-73
2021/12/24 03:15:13;;;;;;;;;;;;;;;0.75;100.00;99114.28;5113094;28;1113;-74
2021/12/24 03:17:44;;;;;;;;;;;;;;;0.78;100.00;99119.41;5112180;28;922;-73
2021/12/24 03:20:11;;;;;;;;;;;;;;;0.82;100.00;99112.06;5113043;28;907;-74
2021/12/24 03:22:47;;;;;;;;;;;;;;;0.82;100.00;99120.91;5112773;28;1981;-73
2021/12/24 03:25:15;;;;;;;;;;;;;;;0.82;100.00;99110.22;5114837;28;1358;-74
2021/12/24 03:27:41;;;;;;;;;;;;;;;0.86;100.00;99110.91;5117717;28;922;-74
2021/12/24 03:30:08;;;;;;;;;;;;;;;0.87;100.00;99109.06;5101339;28;1294;-74
2021/12/24 03:32:35;;;;;;;;;;;;;;;0.84;100.00;99110.13;5116694;28;827;-74
2021/12/24 03:35:01;;;;;;;;;;;;;;;0.86;100.00;99116.22;5116595;28;1297;-73
2021/12/24 03:37:28;;;;;;;;;;;;;;;0.88;100.00;99111.63;5116559;28;1138;-75
2021/12/24 03:39:54;;;;;;;;;;;;;;;0.92;100.00;99098.94;5115742;28;1022;-74
2021/12/24 03:42:22;;;;;;;;;;;;;;;0.90;100.00;99098.19;5116792;28;1028;-74
2021/12/24 03:44:57;;;;;;;;;;;;;;;0.91;100.00;99102.56;5100280;28;1952;-74
2021/12/24 03:47:25;;;;;;;;;;;;;;;0.93;100.00;99092.63;5119885;28;989;-74
2021/12/24 03:50:07;;;;;;;;;;;;;;;0.95;100.00;99091.56;5117142;28;1001;-73
2021/12/24 03:52:50;;;;;;;;;;;;;;;0.97;100.00;99088.78;5113279;28;1009;-74
2021/12/24 03:55:16;;;;;;;;;;;;;;;0.95;100.00;99093.38;5096113;28;1288;-73
2021/12/24 03:57:45;;;;;;;;;;;;;;;0.96;100.00;99100.44;5109501;28;1561;-74
2021/12/24 04:00:37;;;;;;;;;;;;;;;0.99;100.00;99098.41;5093418;28;1254;-74
2021/12/24 04:03:36;;;;;;;;;;;;;;;1.02;100.00;99085.78;5059039;28;1903;-73
2021/12/24 04:06:21;;;;;;;;;;;;;;;1.03;100.00;99077.69;5092389;28;1001;-73
2021/12/24 04:09:10;;;;;;;;;;;;;;;1.04;100.00;99079.38;5093167;28;1206;-73
2021/12/24 04:11:48;;;;;;;;;;;;;;;1.06;100.00;99080.16;5091487;28;1646;-74
2021/12/24 04:14:16;;;;;;;;;;;;;;;1.04;100.00;99074.03;5074679;28;1308;-71
2021/12/24 04:16:43;;;;;;;;;;;;;;;1.06;100.00;99072.13;5090683;28;915;-72
2021/12/24 04:19:24;;;;;;;;;;;;;;;1.07;100.00;99063.16;5074392;28;1131;-71
2021/12/24 04:24:52;;;;;;;;;;;;;;;1.10;100.00;99057.59;5078114;28;1914;-73
2021/12/24 04:27:19;;;;;;;;;;;;;;;1.13;100.00;99051.19;5091922;28;1041;-74
2021/12/24 04:29:47;;;;;;;;;;;;;;;1.17;100.00;99058.03;5095615;28;1064;-74
2021/12/24 04:32:17;;;;;;;;;;;;;;;1.18;100.00;99051.72;5093871;28;1026;-74
2021/12/24 04:35:04;;;;;;;;;;;;;;;1.19;100.00;99045.44;5092903;28;1438;-73
2021/12/24 04:51:22;;;;;;;;;;;;;;;1.33;100.00;99036.44;5091481;28;1060;-74
2021/12/24 05:02:41;;;;;;;;;;;;;;;1.45;100.00;99032.06;5094992;28;1060;-73
2021/12/24 05:05:18;;;;;;;;;;;;;;;1.48;100.00;99037.19;5088339;23;3565;-75
2021/12/24 05:08:09;;;;;;;;;;;;;;;1.51;100.00;99023.59;5068432;28;987;-72
2021/12/24 05:10:38;;;;;;;;;;;;;;;1.54;100.00;99022.50;5072210;28;1079;-73
2021/12/24 05:13:06;;;;;;;;;;;;;;;1.55;100.00;99026.91;5072882;28;997;-70
2021/12/24 05:15:46;;;;;;;;;;;;;;;1.54;100.00;99027.84;5052632;28;902;-73
2021/12/24 05:19:04;;;;;;;;;;;;;;;1.57;100.00;99036.53;4999361;28;1364;-72
2021/12/24 05:22:04;;;;;;;;;;;;;;;1.62;100.00;99025.53;5052337;28;1284;-72
2021/12/24 05:24:33;;;;;;;;;;;;;;;1.64;100.00;99031.59;5052239;28;1977;-73
2021/12/24 05:27:02;;;;;;;;;;;;;;;1.66;100.00;99021.66;5052178;28;935;-74
2021/12/24 05:29:32;;;;;;;;;;;;;;;1.69;100.00;99023.25;5039399;28;1446;-71
2021/12/24 05:31:58;;;;;;;;;;;;;;;1.72;100.00;99031.06;5032615;28;853;-71
2021/12/24 05:34:26;;;;;;;;;;;;;;;1.75;100.00;99023.69;5032238;28;1320;-74
2021/12/24 05:36:55;;;;;;;;;;;;;;;1.79;100.00;99024.28;5033518;28;991;-76
2021/12/24 05:39:22;;;;;;;;;;;;;;;1.82;100.00;99027.59;5049494;28;1538;-76
2021/12/24 05:41:50;;;;;;;;;;;;;;;1.87;100.00;99023.75;5051588;28;1522;-77
2021/12/24 05:44:18;;;;;;;;;;;;;;;1.90;100.00;99018.16;5051402;28;1920;-75
2021/12/24 05:46:49;;;;;;;;;;;;;;;1.94;100.00;99014.31;5040075;28;1462;-76
2021/12/24 05:49:29;;;;;;;;;;;;;;;1.96;100.00;99020.41;5045895;28;1396;-76
2021/12/24 05:52:15;;;;;;;;;;;;;;;1.99;100.00;99029.06;5033379;28;1003;-77
2021/12/24 05:54:49;;;;;;;;;;;;;;;2.05;100.00;99019.72;5032227;28;1430;-78
2021/12/24 05:57:19;;;;;;;;;;;;;;;2.07;100.00;99015.13;5031690;28;1045;-75
2021/12/24 05:59:45;;;;;;;;;;;;;;;2.07;100.00;99008.91;5032050;28;923;-78
2021/12/24 06:02:12;;;;;;;;;;;;;;;2.10;100.00;99014.91;5035192;28;1563;-76
2021/12/24 06:04:39;;;;;;;;;;;;;;;2.13;100.00;99013.81;5051428;28;1977;-77
2021/12/24 06:07:06;;;;;;;;;;;;;;;2.14;100.00;99010.19;5053514;28;823;-76
2021/12/24 06:09:32;;;;;;;;;;;;;;;2.16;100.00;99002.88;5053017;28;946;-76
2021/12/24 06:11:59;;;;;;;;;;;;;;;2.16;100.00;99002.88;5053049;28;1029;-76
2021/12/24 06:14:25;;;;;;;;;;;;;;;2.18;100.00;99011.66;5052665;28;1311;-77
2021/12/24 06:17:01;;;;;;;;;;;;;;;2.18;100.00;99011.66;5051528;28;804;-77
2021/12/24 06:19:27;;;;;;;;;;;;;;;2.23;100.00;99024.69;5052832;28;922;-78
2021/12/24 06:21:55;;;;;;;;;;;;;;;2.23;100.00;99014.88;5051575;28;852;-79
2021/12/24 06:24:21;;;;;;;;;;;;;;;2.23;100.00;99011.31;5052739;28;1983;-77
2021/12/24 06:26:47;;;;;;;;;;;;;;;2.20;100.00;99004.34;5068031;28;1077;-75
2021/12/24 06:29:13;;;;;;;;;;;;;;;2.22;100.00;99006.91;5052356;28;1477;-75
2021/12/24 06:31:40;;;;;;;;;;;;;;;2.22;100.00;99010.47;5034231;28;1511;-77
2021/12/24 06:34:06;;;;;;;;;;;;;;;2.25;100.00;99001.34;5052184;28;1640;-77
2021/12/24 06:36:35;;;;;;;;;;;;;;;2.27;100.00;99004.75;5052123;28;953;-74
2021/12/24 06:39:04;;;;;;;;;;;;;;;2.27;100.00;99005.63;5052410;28;1552;-75
2021/12/24 06:41:30;;;;;;;;;;;;;;;2.29;100.00;99003.69;5052449;28;982;-76
2021/12/24 06:43:57;;;;;;;;;;;;;;;2.31;100.00;99007.09;5052011;28;1977;-76
2021/12/24 06:46:23;;;;;;;;;;;;;;;2.33;100.00;99004.31;5044399;28;1518;-73
2021/12/24 06:48:55;;;;;;;;;;;;;;;2.34;100.00;99006.88;5042359;28;1379;-75
2021/12/24 06:51:21;;;;;;;;;;;;;;;2.39;100.00;99019.06;5048946;28;1494;-74
2021/12/24 06:53:47;;;;;;;;;;;;;;;2.39;100.00;99013.72;5048101;28;1491;-77
2021/12/24 06:56:15;;;;;;;;;;;;;;;2.38;100.00;99012.88;5032665;28;1448;-77
2021/12/24 06:58:44;;;;;;;;;;;;;;;2.42;100.00;99016.16;5031857;28;1586;-74
2021/12/24 07:01:10;;;;;;;;;;;;;;;2.45;100.00;99016.78;5037040;28;1510;-77
2021/12/24 07:03:37;;;;;;;;;;;;;;;2.48;100.00;99013.03;5030540;28;1914;-76
2021/12/24 07:06:03;;;;;;;;;;;;;;;2.46;100.00;99013.13;5047949;28;1529;-75
2021/12/24 07:08:30;;;;;;;;;;;;;;;2.52;100.00;99009.13;5051511;28;1556;-75
2021/12/24 07:10:56;;;;;;;;;;;;;;;2.54;100.00;99014.38;5046958;28;1536;-76
2021/12/24 07:13:25;;;;;;;;;;;;;;;2.53;100.00;99015.38;5032610;28;1353;-75
2021/12/24 07:15:51;;;;;;;;;;;;;;;2.56;100.00;99013.28;5049802;28;1536;-75
2021/12/24 07:18:17;;;;;;;;;;;;;;;2.58;100.00;99013.16;5050928;28;1481;-75
2021/12/24 07:20:44;;;;;;;;;;;;;;;2.60;100.00;99020.13;5050710;28;1572;-75
2021/12/24 07:23:10;;;;;;;;;;;;;;;2.62;100.00;99020.88;5047864;28;963;-75
2021/12/24 07:25:37;;;;;;;;;;;;;;;2.62;100.00;99015.53;5034812;28;1910;-74
2021/12/24 07:28:04;;;;;;;;;;;;;;;2.64;100.00;99012.72;5031426;28;855;-73
2021/12/24 07:30:31;;;;;;;;;;;;;;;2.65;100.00;99015.28;5045506;28;1494;-76
2021/12/24 07:32:58;;;;;;;;;;;;;;;2.70;100.00;99014.06;5065748;28;1522;-74
2021/12/24 07:35:24;;;;;;;;;;;;;;;2.72;100.00;99007.63;5049653;28;1572;-76
2021/12/24 07:37:51;;;;;;;;;;;;;;;2.75;100.00;99017.25;5035681;28;1410;-74
2021/12/24 07:40:17;;;;;;;;;;;;;;;2.75;100.00;99015.44;5042471;28;1327;-72
2021/12/24 07:42:44;;;;;;;;;;;;;;;2.77;100.00;99020.69;5049207;28;1505;-74
2021/12/24 07:45:11;;;;;;;;;;;;;;;2.80;100.00;99017.78;5050755;28;1918;-72
2021/12/24 07:47:41;;;;;;;;;;;;;;;2.80;100.00;99013.25;5049193;28;1488;-76
2021/12/24 07:50:18;;;;;;;;;;;;;;;2.83;100.00;99001.44;5050986;28;1516;-77
2021/12/24 07:52:44;;;;;;;;;;;;;;;2.84;100.00;99014.72;5050681;28;1469;-73
2021/12/24 07:55:11;;;;;;;;;;;;;;;2.88;100.00;99011.84;5050822;28;1588;-75
2021/12/24 07:57:38;;;;;;;;;;;;;;;2.90;100.00;99012.56;5050410;28;1634;-76
2021/12/24 08:00:05;;;;;;;;;;;;;;;2.90;100.00;99020.59;5051081;28;910;-73
2021/12/24 08:02:42;;;;;;;;;;;;;;;2.91;100.00;99025.00;5050988;28;1528;-72
2021/12/24 08:05:08;;;;;;;;;;;;;;;2.92;100.00;99029.38;5049899;28;1975;-72
2021/12/24 08:07:35;;;;;;;;;;;;;;;2.93;100.00;99023.91;5044390;28;1573;-73
2021/12/24 08:10:01;;;;;;;;;;;;;;;2.95;100.00;99023.78;5049975;28;1508;-71
2021/12/24 08:12:27;;;;;;;;;;;;;;;2.98;100.00;99019.03;5050282;28;1488;-70
2021/12/24 08:14:53;;;;;;;;;;;;;;;3.02;100.00;99027.72;5050999;28;1291;-70
2021/12/24 08:17:20;;;;;;;;;;;;;;;3.06;100.00;99021.16;5050498;28;1509;-73
2021/12/24 08:19:47;;;;;;;;;;;;;;;3.07;100.00;99019.31;5049735;28;766;-73
2021/12/24 08:22:14;;;;;;;;;;;;;;;3.08;100.00;99013.81;5044545;28;1529;-73
2021/12/24 08:24:41;;;;;;;;;;;;;;;3.09;100.00;99023.56;5047491;28;1918;-71
2021/12/24 08:27:07;;;;;;;;;;;;;;;3.16;100.00;99010.56;5048280;28;1255;-73
2021/12/24 08:29:34;;;;;;;;;;;;;;;3.23;100.00;99002.88;5044550;28;2157;-73
2021/12/24 08:32:01;;;;;;;;;;;;;;;3.29;100.00;98999.72;5032760;28;1462;-73
2021/12/24 08:34:27;;;;;;;;;;;;;;;3.35;100.00;99002.78;5030795;28;1331;-73
2021/12/24 08:36:55;;;;;;;;;;;;;;;3.42;100.00;99007.66;5038902;28;1116;-73
2021/12/24 08:39:22;;;;;;;;;;;;;;;3.43;100.00;98999.47;5050558;28;994;-73
2021/12/24 08:41:52;;;;;;;;;;;;;;;3.45;100.00;99000.22;5050387;28;975;-71
2021/12/24 08:44:18;;;;;;;;;;;;;;;3.49;100.00;98985.59;5049843;28;1973;-70
2021/12/24 08:46:44;;;;;;;;;;;;;;;3.52;100.00;98996.06;5050285;28;1084;-72
2021/12/24 08:49:11;;;;;;;;;;;;;;;3.56;100.00;98987.78;5054467;28;821;-72
2021/12/24 08:51:37;;;;;;;;;;;;;;;3.56;100.00;98985.09;5052748;28;777;-72
2021/12/24 08:54:04;;;;;;;;;;;;;;;3.59;100.00;98976.81;5054095;28;1322;-73
2021/12/24 08:56:31;;;;;;;;;;;;;;;3.63;100.00;98978.25;5053621;28;1006;-72
2021/12/24 08:58:57;;;;;;;;;;;;;;;3.66;100.00;98973.50;5053394;28;1132;-72
2021/12/24 09:01:23;;;;;;;;;;;;;;;3.71;100.00;98969.59;5053854;28;1097;-72
2021/12/24 09:03:49;;;;;;;;;;;;;;;3.70;100.00;98960.66;5054772;28;1334;-72
2021/12/24 09:06:16;;;;;;;;;;;;;;;3.73;100.00;98968.50;5050895;28;2047;-71
2021/12/24 09:08:44;;;;;;;;;;;;;;;3.75;100.00;98963.84;5053784;28;1094;-72
2021/12/24 09:11:12;;;;;;;;;;;;;;;3.79;100.00;98953.72;5053678;28;1189;-71
2021/12/24 09:13:38;;;;;;;;;;;;;;;3.81;100.00;98960.66;5053789;28;1348;-72
2021/12/24 09:16:04;;;;;;;;;;;;;;;3.82;100.00;98972.25;5053476;28;776;-71
2021/12/24 09:18:31;;;;;;;;;;;;;;;3.79;100.00;98983.25;5053956;28;873;-72
2021/12/24 09:21:00;;;;;;;;;;;;;;;3.76;100.00;98986.19;5053553;28;879;-71
2021/12/24 09:23:27;;;;;;;;;;;;;;;3.72;100.00;98977.53;5053510;28;1398;-72
2021/12/24 09:25:53;;;;;;;;;;;;;;;3.71;100.00;98978.50;5036769;28;1952;-71
2021/12/24 09:28:20;;;;;;;;;;;;;;;3.70;100.00;98971.41;5053792;28;954;-70
2021/12/24 09:30:47;;;;;;;;;;;;;;;3.70;100.00;98971.41;5053696;28;967;-72
2021/12/24 09:33:13;;;;;;;;;;;;;;;3.68;100.00;98992.16;5053170;28;844;-71
2021/12/24 09:35:39;;;;;;;;;;;;;;;3.66;100.00;98986.06;5051854;28;1455;-72
2021/12/24 09:38:06;;;;;;;;;;;;;;;3.64;100.00;98980.81;5053063;28;889;-70
2021/12/24 09:40:33;;;;;;;;;;;;;;;3.65;100.00;98979.00;5053497;28;891;-72
2021/12/24 09:43:00;;;;;;;;;;;;;;;3.65;100.00;98982.53;5052037;28;1006;-72
2021/12/24 09:45:28;;;;;;;;;;;;;;;3.67;100.00;98985.09;5052838;28;1910;-72
2021/12/24 09:47:54;;;;;;;;;;;;;;;3.70;100.00;98974.09;5052974;28;907;-72
2021/12/24 09:50:22;;;;;;;;;;;;;;;3.72;100.00;98966.78;5053069;28;879;-72
2021/12/24 09:52:49;;;;;;;;;;;;;;;3.71;100.00;98980.34;5046613;28;1172;-71
2021/12/24 09:55:16;;;;;;;;;;;;;;;3.71;100.00;98978.50;5040066;28;1321;-72
2021/12/24 09:57:43;;;;;;;;;;;;;;;3.69;100.00;98975.09;5037010;28;1092;-73
2021/12/24 10:00:11;;;;;;;;;;;;;;;3.71;100.00;98974.97;5044384;28;1212;-71
2021/12/24 10:02:42;;;;;;;;;;;;;;;3.69;100.00;98993.88;5043022;28;1264;-71
2021/12/24 10:05:25;;;;;;;;;;;;;;;3.67;100.00;98980.59;5041177;28;1894;-72
2021/12/24 10:07:51;;;;;;;;;;;;;;;3.69;100.00;98988.50;5049695;28;1275;-72
2021/12/24 10:10:24;;;;;;;;;;;;;;;3.68;100.00;98987.63;5052711;28;796;-72
2021/12/24 10:12:50;;;;;;;;;;;;;;;3.66;100.00;98994.09;5052886;28;1060;-71
2021/12/24 10:15:17;;;;;;;;;;;;;;;3.62;100.00;98985.47;5052585;28;1390;-71
2021/12/24 10:17:45;;;;;;;;;;;;;;;3.64;100.00;98988.88;5052002;28;1562;-71
2021/12/24 10:20:13;;;;;;;;;;;;;;;3.63;100.00;98979.09;5052624;28;947;-71
2021/12/24 10:22:43;;;;;;;;;;;;;;;3.63;100.00;98984.47;5052400;28;906;-71
2021/12/24 10:25:12;;;;;;;;;;;;;;;3.62;100.00;98974.72;5052084;28;1973;-71
2021/12/24 10:27:38;;;;;;;;;;;;;;;3.59;100.00;98992.91;5051032;28;984;-72
2021/12/24 10:30:17;;;;;;;;;;;;;;;3.56;100.00;99001.22;5045374;28;1157;-71
2021/12/24 10:32:44;;;;;;;;;;;;;;;3.54;100.00;99000.47;5032544;28;1093;-71
2021/12/24 10:35:18;;;;;;;;;;;;;;;3.53;100.00;98994.25;5032310;28;1316;-71
2021/12/24 10:37:44;;;;;;;;;;;;;;;3.52;100.00;98990.69;5040676;28;953;-71
2021/12/24 10:40:10;;;;;;;;;;;;;;;3.52;100.00;98985.31;5044489;28;1027;-71
2021/12/24 10:42:38;;;;;;;;;;;;;;;3.49;100.00;98996.31;5052081;28;1134;-71
2021/12/24 10:45:05;;;;;;;;;;;;;;;3.46;100.00;98993.88;5051831;28;1984;-71
2021/12/24 10:47:35;;;;;;;;;;;;;;;3.43;100.00;98990.59;5054068;28;983;-72
2021/12/24 10:50:12;;;;;;;;;;;;;;;3.34;100.00;98990.34;5043506;28;1075;-71
2021/12/24 10:53:12;;;;;;;;;;;;;;;3.33;100.00;98977.91;5051940;28;1054;-72
2021/12/24 10:55:44;;;;;;;;;;;;;;;3.22;100.00;98985.06;5051576;28;1351;-72
2021/12/24 10:58:14;;;;;;;;;;;;;;;3.18;100.00;98996.06;5051848;28;957;-71
2021/12/24 11:00:42;;;;;;;;;;;;;;;3.12;100.00;98991.16;5050983;28;914;-71
2021/12/24 11:03:11;;;;;;;;;;;;;;;3.13;100.00;98984.81;5061567;28;982;-71
2021/12/24 11:05:40;;;;;;;;;;;;;;;3.13;100.00;98979.47;5071100;28;1906;-72
2021/12/24 11:08:08;;;;;;;;;;;;;;;3.06;100.00;98986.28;5070672;28;785;-70
2021/12/24 11:10:37;;;;;;;;;;;;;;;3.04;100.00;98993.59;5068465;28;978;-70
2021/12/24 11:13:08;;;;;;;;;;;;;;;2.99;100.00;99012.72;5071530;28;1009;-71
2021/12/24 11:15:35;;;;;;;;;;;;;;;2.95;100.00;98999.66;5071876;28;1364;-70
2021/12/24 11:18:02;;;;;;;;;;;;;;;2.85;100.00;99010.25;5070353;28;1006;-70
2021/12/24 11:20:30;;;;;;;;;;;;;;;2.68;100.00;98998.97;5071549;28;923;-71
2021/12/24 11:22:59;;;;;;;;;;;;;;;2.64;100.00;99004.69;5071392;28;761;-71
2021/12/24 11:25:27;;;;;;;;;;;;;;;2.53;100.00;98985.91;5071042;28;1913;-72
2021/12/24 11:27:54;;;;;;;;;;;;;;;2.62;100.00;98995.91;5071531;28;870;-71
2021/12/24 11:30:21;;;;;;;;;;;;;;;2.71;100.00;99000.56;5071317;28;983;-72
2021/12/24 11:32:48;;;;;;;;;;;;;;;2.63;100.00;98994.94;5058125;28;1397;-71
2021/12/24 11:35:15;;;;;;;;;;;;;;;2.63;100.00;98992.25;5050881;28;1536;-72
2021/12/24 11:37:44;;;;;;;;;;;;;;;2.51;100.00;98992.22;5050889;28;1489;-73
2021/12/24 11:40:13;;;;;;;;;;;;;;;2.51;100.00;98994.03;5050821;28;1552;-74
2021/12/24 11:42:40;;;;;;;;;;;;;;;2.46;100.00;99014.94;5051305;28;994;-74
2021/12/24 11:45:06;;;;;;;;;;;;;;;2.31;100.00;99017.81;5051041;28;1906;-74
2021/12/24 11:47:33;;;;;;;;;;;;;;;2.15;100.00;99018.09;5050652;28;899;-74
2021/12/24 11:49:59;;;;;;;;;;;;;;;1.95;100.00;99021.34;5051084;28;1567;-73
2021/12/24 11:52:27;;;;;;;;;;;;;;;1.64;100.00;99024.44;5048004;28;1530;-73
2021/12/24 11:54:54;;;;;;;;;;;;;;;1.43;100.00;99052.69;5049805;28;1604;-73
2021/12/24 11:57:22;;;;;;;;;;;;;;;1.41;100.00;99068.00;5047887;28;1513;-72
2021/12/24 11:59:49;;;;;;;;;;;;;;;1.34;100.00;99070.25;5041768;28;1718;-72
2021/12/24 12:02:30;;;;;;;;;;;;;;;1.19;100.00;99082.84;5030816;28;863;-74
2021/12/24 12:05:10;;;;;;;;;;;;;;;1.08;100.00;99080.91;5044213;28;1411;-73
2021/12/24 12:07:36;;;;;;;;;;;;;;;1.04;100.00;99079.38;5049371;28;1252;-74
2021/12/24 12:10:03;;;;;;;;;;;;;;;1.06;100.00;99085.50;5041761;28;1350;-74
2021/12/24 12:12:34;;;;;;;;;;;;;;;0.98;100.00;99099.38;5036235;28;1506;-73
2021/12/24 12:15:15;;;;;;;;;;;;;;;0.89;100.00;99101.81;5044496;28;1569;-74
2021/12/24 12:17:49;;;;;;;;;;;;;;;0.85;100.00;99108.31;5046188;28;1538;-73
2021/12/24 12:20:34;;;;;;;;;;;;;;;0.83;100.00;99116.44;5050132;28;1576;-73
2021/12/24 12:23:02;;;;;;;;;;;;;;;0.81;100.00;99116.53;5049733;28;1572;-74
2021/12/24 12:25:32;;;;;;;;;;;;;;;0.84;100.00;99104.78;5049622;28;2021;-73
2021/12/24 12:28:01;;;;;;;;;;;;;;;0.87;100.00;99101.94;5047380;28;2335;-73
2021/12/24 12:30:30;;;;;;;;;;;;;;;0.82;100.00;99099.53;5050241;28;1255;-74
2021/12/24 12:33:07;;;;;;;;;;;;;;;0.83;100.00;99103.09;5048716;28;1523;-74
2021/12/24 12:35:34;;;;;;;;;;;;;;;0.82;100.00;99096.03;5048958;28;1391;-75
2021/12/24 12:38:00;;;;;;;;;;;;;;;0.82;100.00;99114.72;5048574;28;1537;-73
2021/12/24 12:40:28;;;;;;;;;;;;;;;0.82;100.00;99118.25;5048330;28;1525;-75
2021/12/24 12:43:05;;;;;;;;;;;;;;;0.71;100.00;99128.81;5028882;28;1607;-74
2021/12/24 12:45:47;;;;;;;;;;;;;;;0.72;100.00;99125.19;5045391;28;1987;-74
2021/12/24 12:48:16;;;;;;;;;;;;;;;0.74;100.00;99117.06;5049249;28;2033;-75
2021/12/24 12:50:51;;;;;;;;;;;;;;;0.62;100.00;99116.91;5031565;28;1566;-75
2021/12/24 12:53:25;;;;;;;;;;;;;;;0.61;100.00;99114.31;5050037;28;1394;-74
2021/12/24 12:56:08;;;;;;;;;;;;;;;0.62;100.00;99116.06;5049560;28;1477;-75
2021/12/24 12:58:36;;;;;;;;;;;;;;;0.61;100.00;99114.31;5050387;28;844;-73
2021/12/24 13:01:04;;;;;;;;;;;;;;;0.61;100.00;99125.00;5049198;28;1322;-73
2021/12/24 13:03:30;;;;;;;;;;;;;;;0.59;100.00;99125.13;5064465;22;4324;-73
2021/12/24 13:05:59;;;;;;;;;;;;;;;0.58;100.00;99130.56;5068207;28;1980;-77
2021/12/24 13:08:26;;;;;;;;;;;;;;;0.54;100.00;99135.25;5048150;28;955;-73
2021/12/24 13:10:57;;;;;;;;;;;;;;;0.60;100.00;99128.63;5049354;28;1528;-73
2021/12/24 13:13:23;;;;;;;;;;;;;;;0.57;100.00;99124.34;5064506;28;1528;-73
2021/12/24 13:15:51;;;;;;;;;;;;;;;0.53;100.00;99116.66;5065399;28;1501;-73
2021/12/24 13:18:25;;;;;;;;;;;;;;;0.55;100.00;99123.59;5055263;28;1596;-75
2021/12/24 13:23:32;;;;;;;;;;;;;;;0.50;100.00;99150.59;5068281;28;1500;-73
2021/12/24 13:26:07;;;;;;;;;;;;;;;0.53;100.00;99141.53;5048610;28;1910;-73
2021/12/24 13:28:33;;;;;;;;;;;;;;;0.45;100.00;99159.88;5051130;28;1575;-73
2021/12/24 13:31:12;;;;;;;;;;;;;;;0.38;100.00;99163.91;5072012;28;879;-74
2021/12/24 13:33:38;;;;;;;;;;;;;;;0.42;100.00;99179.59;5045153;28;1561;-72
2021/12/24 13:36:05;;;;;;;;;;;;;;;0.39;100.00;99185.16;5064777;28;1551;-73
2021/12/24 13:38:31;;;;;;;;;;;;;;;0.38;100.00;99198.59;5073499;28;761;-72
2021/12/24 13:40:58;;;;;;;;;;;;;;;0.39;100.00;99209.19;5066893;28;1539;-72
2021/12/24 13:43:24;;;;;;;;;;;;;;;0.32;100.00;99200.69;5039543;28;1404;-73
2021/12/24 13:45:52;;;;;;;;;;;;;;;0.30;100.00;99204.41;5032847;28;1910;-73
2021/12/24 13:48:25;;;;;;;;;;;;;;;0.24;100.00;99200.34;5041380;28;1502;-73
2021/12/24 13:56:18;;;;;;;;;;;;;;;0.13;100.00;99219.69;5072734;28;923;-73
2021/12/24 13:58:49;;;;;;;;;;;;;;;0.09;100.00;99210.13;5061485;28;1505;-72
2021/12/24 14:01:15;;;;;;;;;;;;;;;0.05;100.00;99208.59;5052977;28;990;-73
2021/12/24 14:03:43;;;;;;;;;;;;;;;0.05;100.00;99219.28;5060733;28;1539;-73
2021/12/24 14:06:11;;;;;;;;;;;;;;;0.07;100.00;99227.22;5059061;28;1979;-73
2021/12/24 14:08:38;;;;;;;;;;;;;;;0.05;100.00;99229.94;5055007;28;1607;-73
2021/12/24 14:11:06;;;;;;;;;;;;;;;0.04;100.00;99222.91;5053713;28;1537;-73
2021/12/24 14:13:36;;;;;;;;;;;;;;;0.04;100.00;99222.91;5063566;28;1611;-73
2021/12/24 14:16:11;;;;;;;;;;;;;;;0.05;100.00;99224.63;5059405;28;1517;-74
2021/12/24 14:18:46;;;;;;;;;;;;;;;0.03;100.00;99237.22;5067077;28;1564;-73
2021/12/24 14:21:46;;;;;;;;;;;;;;;0.01;100.00;99240.91;5047411;28;1541;-75
2021/12/24 14:24:14;;;;;;;;;;;;;;;-0.05;100.00;99240.34;5067293;28;1528;-75
2021/12/24 14:26:41;;;;;;;;;;;;;;;-0.07;100.00;99244.06;5070914;28;1914;-74
2021/12/24 14:29:08;;;;;;;;;;;;;;;-0.09;100.00;99248.63;5066034;28;1535;-74
2021/12/24 14:31:47;;;;;;;;;;;;;;;-0.12;100.00;99249.69;5052286;28;1556;-73